VIR172 YBCS-YBBN
Flight info
| Callsign | VIR172 |
|---|---|
| Flight time | N/A |
| Altitude | 37000 |
| Route | AKROM Y177 BN |
| Aircraft | B77W/H-SDE1E2E3FGHIJ2J3J4J5M1RWXY/LB1D1 |
Departure
| Time | 2026-04-27 10:11 |
|---|---|
| Airport | Cairns International Airport (YBCS) |
Arrival
| Time | N/A |
|---|---|
| Airport | Brisbane International Airport (YBBN) |
| Time | Latitude | Longitude | Altitude | Speed | Heading |
|---|---|---|---|---|---|
| 2026-04-27 09:39 | -16.87726 | 145.75258 | 24 ft | 0 kts | 68° |
| 2026-04-27 09:58 | -16.87727 | 145.75258 | 21 ft | 1 kts | 68° |
| 2026-04-27 09:58 | -16.87736 | 145.75234 | 22 ft | 4 kts | 70° |
| 2026-04-27 09:59 | -16.87744 | 145.75207 | 25 ft | 4 kts | 71° |
| 2026-04-27 09:59 | -16.87753 | 145.75181 | 26 ft | 4 kts | 65° |
| 2026-04-27 09:59 | -16.87763 | 145.75163 | 26 ft | 0 kts | 51° |
| 2026-04-27 10:02 | -16.87761 | 145.75165 | 21 ft | 1 kts | 51° |
| 2026-04-27 10:02 | -16.87756 | 145.75170 | 24 ft | 1 kts | 40° |
| 2026-04-27 10:02 | -16.87747 | 145.75171 | 23 ft | 1 kts | 3° |
| 2026-04-27 10:03 | -16.87734 | 145.75165 | 22 ft | 3 kts | 339° |
| 2026-04-27 10:03 | -16.87682 | 145.75141 | 24 ft | 9 kts | 329° |
| 2026-04-27 10:03 | -16.87654 | 145.75084 | 25 ft | 10 kts | 259° |
| 2026-04-27 10:03 | -16.87625 | 145.75025 | 25 ft | 10 kts | 326° |
| 2026-04-27 10:04 | -16.87562 | 145.74996 | 23 ft | 10 kts | 337° |
| 2026-04-27 10:04 | -16.87497 | 145.74967 | 24 ft | 10 kts | 337° |
| 2026-04-27 10:04 | -16.87431 | 145.74938 | 8 ft | 10 kts | 336° |
| 2026-04-27 10:04 | -16.87366 | 145.74909 | 10 ft | 10 kts | 336° |
| 2026-04-27 10:05 | -16.87301 | 145.74879 | 8 ft | 10 kts | 336° |
| 2026-04-27 10:05 | -16.87236 | 145.74850 | 7 ft | 10 kts | 336° |
| 2026-04-27 10:05 | -16.87170 | 145.74820 | 10 ft | 10 kts | 336° |
| 2026-04-27 10:05 | -16.87117 | 145.74796 | 9 ft | 8 kts | 336° |
| 2026-04-27 10:06 | -16.87081 | 145.74778 | 9 ft | 5 kts | 331° |
| 2026-04-27 10:06 | -16.87056 | 145.74753 | 8 ft | 4 kts | 301° |
| 2026-04-27 10:06 | -16.87051 | 145.74729 | 8 ft | 1 kts | 270° |
| 2026-04-27 10:06 | -16.87051 | 145.74728 | 8 ft | 0 kts | 267° |
| 2026-04-27 10:10 | -16.87069 | 145.74653 | 6 ft | 16 kts | 237° |
| 2026-04-27 10:10 | -16.87095 | 145.74612 | 4 ft | 6 kts | 232° |
| 2026-04-27 10:10 | -16.87134 | 145.74606 | 4 ft | 6 kts | 168° |
| 2026-04-27 10:10 | -16.87289 | 145.74681 | 8 ft | 62 kts | 156° |
| 2026-04-27 10:11 | -16.87944 | 145.74973 | 26 ft | 140 kts | 156° |
| 2026-04-27 10:11 | -16.89012 | 145.75456 | 152 ft | 186 kts | 159° |
| 2026-04-27 10:11 | -16.90181 | 145.76109 | 657 ft | 200 kts | 136° |
| 2026-04-27 10:11 | -16.90737 | 145.77485 | 1285 ft | 209 kts | 101° |
| 2026-04-27 10:12 | -16.90873 | 145.78987 | 2176 ft | 208 kts | 91° |
| 2026-04-27 10:12 | -16.90390 | 145.80429 | 2969 ft | 219 kts | 59° |
| 2026-04-27 10:12 | -16.89284 | 145.81548 | 3643 ft | 231 kts | 44° |
| 2026-04-27 10:12 | -16.87941 | 145.82643 | 4076 ft | 257 kts | 42° |
| 2026-04-27 10:13 | -16.86467 | 145.83815 | 4075 ft | 271 kts | 42° |
| 2026-04-27 10:13 | -16.85071 | 145.85070 | 4117 ft | 261 kts | 60° |
| 2026-04-27 10:13 | -16.84330 | 145.86769 | 4777 ft | 258 kts | 79° |
| 2026-04-27 10:13 | -16.84139 | 145.88593 | 5479 ft | 254 kts | 107° |
| 2026-04-27 10:14 | -16.85013 | 145.90111 | 6476 ft | 247 kts | 140° |
| 2026-04-27 10:14 | -16.86511 | 145.91021 | 7192 ft | 254 kts | 151° |
| 2026-04-27 10:14 | -16.88102 | 145.91931 | 7858 ft | 262 kts | 149° |
| 2026-04-27 10:14 | -16.89690 | 145.92888 | 8738 ft | 270 kts | 149° |
| 2026-04-27 10:15 | -16.91328 | 145.93875 | 9571 ft | 273 kts | 149° |
| 2026-04-27 10:15 | -16.92996 | 145.94874 | 10335 ft | 280 kts | 150° |
| 2026-04-27 10:15 | -16.94723 | 145.95904 | 10735 ft | 303 kts | 151° |
| 2026-04-27 10:15 | -16.96643 | 145.97044 | 10972 ft | 332 kts | 151° |
| 2026-04-27 10:16 | -16.98743 | 145.98287 | 11226 ft | 359 kts | 152° |
| 2026-04-27 10:16 | -17.00969 | 145.99607 | 11903 ft | 372 kts | 153° |
| 2026-04-27 10:16 | -17.03258 | 146.00963 | 12653 ft | 384 kts | 153° |
| 2026-04-27 10:16 | -17.05612 | 146.02359 | 13537 ft | 392 kts | 154° |
| 2026-04-27 10:17 | -17.08003 | 146.03778 | 14381 ft | 398 kts | 154° |
| 2026-04-27 10:17 | -17.10393 | 146.05197 | 15228 ft | 403 kts | 154° |
| 2026-04-27 10:17 | -17.12851 | 146.06657 | 16073 ft | 408 kts | 154° |
| 2026-04-27 10:17 | -17.15344 | 146.08138 | 16840 ft | 414 kts | 153° |
| 2026-04-27 10:18 | -17.17869 | 146.09637 | 17022 ft | 419 kts | 153° |
| 2026-04-27 10:18 | -17.20415 | 146.11151 | 17019 ft | 418 kts | 153° |
| 2026-04-27 10:18 | -17.22895 | 146.12628 | 17319 ft | 412 kts | 154° |
| 2026-04-27 10:18 | -17.25405 | 146.14122 | 18004 ft | 419 kts | 154° |
| 2026-04-27 10:19 | -17.27968 | 146.15645 | 18709 ft | 425 kts | 153° |
| 2026-04-27 10:19 | -17.30552 | 146.17181 | 19419 ft | 430 kts | 153° |
| 2026-04-27 10:19 | -17.33167 | 146.18736 | 20154 ft | 434 kts | 153° |
| 2026-04-27 10:19 | -17.35809 | 146.20308 | 20878 ft | 439 kts | 153° |
| 2026-04-27 10:20 | -17.38453 | 146.21883 | 21575 ft | 444 kts | 153° |
| 2026-04-27 10:20 | -17.41155 | 146.23492 | 22275 ft | 450 kts | 153° |
| 2026-04-27 10:20 | -17.43894 | 146.25125 | 22976 ft | 455 kts | 153° |
| 2026-04-27 10:20 | -17.46695 | 146.26795 | 23639 ft | 460 kts | 153° |
| 2026-04-27 10:21 | -17.49458 | 146.28443 | 24209 ft | 465 kts | 153° |
| 2026-04-27 10:21 | -17.52280 | 146.30127 | 24811 ft | 469 kts | 153° |
| 2026-04-27 10:21 | -17.55130 | 146.31828 | 25436 ft | 472 kts | 153° |
| 2026-04-27 10:21 | -17.57991 | 146.33537 | 26032 ft | 476 kts | 153° |
| 2026-04-27 10:22 | -17.60887 | 146.35266 | 26627 ft | 479 kts | 153° |
| 2026-04-27 10:22 | -17.63799 | 146.37006 | 27200 ft | 483 kts | 153° |
| 2026-04-27 10:22 | -17.66730 | 146.38758 | 27764 ft | 487 kts | 153° |
| 2026-04-27 10:22 | -17.69691 | 146.40528 | 28321 ft | 491 kts | 153° |
| 2026-04-27 10:23 | -17.72634 | 146.42288 | 28850 ft | 495 kts | 153° |
| 2026-04-27 10:23 | -17.75638 | 146.44085 | 29375 ft | 498 kts | 153° |
| 2026-04-27 10:23 | -17.78675 | 146.45904 | 29879 ft | 502 kts | 153° |
| 2026-04-27 10:23 | -17.81722 | 146.47728 | 30305 ft | 505 kts | 153° |
| 2026-04-27 10:24 | -17.84793 | 146.49568 | 30665 ft | 509 kts | 153° |
| 2026-04-27 10:24 | -17.86834 | 146.50791 | 30930 ft | 510 kts | 153° |
| 2026-04-27 10:24 | -17.89916 | 146.52639 | 31433 ft | 510 kts | 153° |
| 2026-04-27 10:24 | -17.92995 | 146.54487 | 31959 ft | 509 kts | 153° |
| 2026-04-27 10:25 | -17.96069 | 146.56333 | 32446 ft | 509 kts | 153° |
| 2026-04-27 10:25 | -17.99151 | 146.58183 | 32883 ft | 509 kts | 153° |
| 2026-04-27 10:25 | -18.03241 | 146.60638 | 33492 ft | 510 kts | 153° |
| 2026-04-27 10:25 | -18.05281 | 146.61864 | 33798 ft | 510 kts | 153° |
| 2026-04-27 10:26 | -18.08368 | 146.63719 | 34210 ft | 510 kts | 153° |
| 2026-04-27 10:26 | -18.11458 | 146.65576 | 34538 ft | 512 kts | 154° |
| 2026-04-27 10:26 | -18.14558 | 146.67440 | 34837 ft | 514 kts | 154° |
| 2026-04-27 10:26 | -18.17669 | 146.69312 | 35147 ft | 516 kts | 154° |
| 2026-04-27 10:27 | -18.20787 | 146.71189 | 35458 ft | 517 kts | 154° |
| 2026-04-27 10:27 | -18.23911 | 146.73071 | 35779 ft | 518 kts | 154° |
| 2026-04-27 10:27 | -18.27045 | 146.74959 | 36085 ft | 520 kts | 154° |
| 2026-04-27 10:27 | -18.30190 | 146.76856 | 36381 ft | 521 kts | 155° |
| 2026-04-27 10:28 | -18.33344 | 146.78757 | 36678 ft | 522 kts | 155° |
| 2026-04-27 10:28 | -18.36505 | 146.80661 | 36941 ft | 524 kts | 155° |
| 2026-04-27 10:28 | -18.42884 | 146.84418 | 37022 ft | 529 kts | 156° |
| 2026-04-27 10:29 | -18.49298 | 146.88163 | 37022 ft | 525 kts | 156° |
| 2026-04-27 10:29 | -18.55659 | 146.91888 | 37028 ft | 522 kts | 155° |
| 2026-04-27 10:30 | -18.61991 | 146.95610 | 37024 ft | 520 kts | 155° |
| 2026-04-27 10:30 | -18.68375 | 146.99362 | 37042 ft | 531 kts | 155° |
| 2026-04-27 10:31 | -18.74835 | 147.03166 | 37027 ft | 535 kts | 155° |
| 2026-04-27 10:31 | -18.81339 | 147.07005 | 37028 ft | 535 kts | 155° |
| 2026-04-27 10:32 | -18.87831 | 147.10840 | 37038 ft | 529 kts | 155° |
| 2026-04-27 10:32 | -18.94150 | 147.14577 | 37021 ft | 519 kts | 154° |
| 2026-04-27 10:33 | -19.00461 | 147.18306 | 37031 ft | 519 kts | 154° |
| 2026-04-27 10:33 | -19.06802 | 147.22054 | 37036 ft | 523 kts | 154° |
| 2026-04-27 10:34 | -19.13164 | 147.25818 | 37039 ft | 531 kts | 154° |
| 2026-04-27 10:34 | -19.19632 | 147.29653 | 37052 ft | 528 kts | 154° |
| 2026-04-27 10:35 | -19.25938 | 147.33401 | 37022 ft | 515 kts | 154° |
| 2026-04-27 10:35 | -19.32198 | 147.37118 | 37037 ft | 516 kts | 154° |
| 2026-04-27 10:36 | -19.38508 | 147.40864 | 37049 ft | 524 kts | 154° |
| 2026-04-27 10:36 | -19.44908 | 147.44670 | 37048 ft | 530 kts | 154° |
| 2026-04-27 10:37 | -19.51316 | 147.48487 | 37060 ft | 530 kts | 153° |
| 2026-04-27 10:37 | -19.57677 | 147.52283 | 37034 ft | 520 kts | 154° |
| 2026-04-27 10:38 | -19.63981 | 147.56043 | 37040 ft | 520 kts | 154° |
| 2026-04-27 10:38 | -19.70286 | 147.59806 | 37049 ft | 520 kts | 154° |
| 2026-04-27 10:39 | -19.76602 | 147.63573 | 37050 ft | 521 kts | 154° |
| 2026-04-27 10:39 | -19.82895 | 147.67330 | 37066 ft | 522 kts | 154° |
| 2026-04-27 10:40 | -19.89239 | 147.71122 | 37058 ft | 523 kts | 154° |
| 2026-04-27 10:40 | -19.95587 | 147.74921 | 37063 ft | 523 kts | 154° |
| 2026-04-27 10:41 | -20.01931 | 147.78721 | 37065 ft | 523 kts | 154° |
| 2026-04-27 10:41 | -20.08276 | 147.82526 | 37048 ft | 523 kts | 154° |
| 2026-04-27 10:42 | -20.14608 | 147.86326 | 37051 ft | 522 kts | 154° |
| 2026-04-27 10:42 | -20.20901 | 147.90106 | 37060 ft | 522 kts | 154° |
| 2026-04-27 10:43 | -20.27030 | 147.94281 | 37077 ft | 527 kts | 142° |
| 2026-04-27 10:43 | -20.31964 | 148.00114 | 37063 ft | 534 kts | 125° |
| 2026-04-27 10:44 | -20.35188 | 148.07257 | 37067 ft | 539 kts | 108° |
| 2026-04-27 10:44 | -20.36791 | 148.15080 | 37072 ft | 539 kts | 102° |
| 2026-04-27 10:45 | -20.37818 | 148.18920 | 37059 ft | 538 kts | 114° |
| 2026-04-27 10:45 | -20.39614 | 148.22396 | 37065 ft | 535 kts | 129° |
| 2026-04-27 10:45 | -20.42136 | 148.25262 | 37074 ft | 529 kts | 144° |
| 2026-04-27 10:45 | -20.45213 | 148.27350 | 37078 ft | 521 kts | 160° |
| 2026-04-27 10:46 | -20.48581 | 148.28520 | 37080 ft | 512 kts | 174° |
| 2026-04-27 10:46 | -20.52100 | 148.28742 | 37073 ft | 503 kts | 189° |
| 2026-04-27 10:46 | -20.55485 | 148.27998 | 37077 ft | 492 kts | 205° |
| 2026-04-27 10:46 | -20.58577 | 148.26490 | 37084 ft | 486 kts | 213° |